Time;durP1;ratioP1;P1;durP2;ratioP2;P2;SDS_P1;SDS_P2;PMS_P1;PMS_P2;Temp;Humidity;BMP_temperature;BMP_pressure;BME280_temperature;BME280_humidity;BME280_pressure;Samples;Min_cycle;Max_cycle;Signal;HPM_P1;HPM_P2
2023/12/12 00:00:41;;;;;;;1.65;0.90;;;20.10;73.70;;;;;;2087580;28;20032;-50
2023/12/12 00:01:42;;;;;;;2.85;1.10;;;20.10;73.70;;;;;;2088279;28;20024;-50
2023/12/12 00:02:42;;;;;;;2.10;1.08;;;20.00;73.70;;;;;;2088033;28;20025;-52
2023/12/12 00:03:43;;;;;;;2.80;0.88;;;20.00;73.70;;;;;;2088054;28;20040;-50
2023/12/12 00:04:43;;;;;;;2.72;0.88;;;20.10;73.70;;;;;;2088012;28;20537;-50
2023/12/12 00:05:44;;;;;;;5.72;0.95;;;20.00;73.60;;;;;;2087190;28;20508;-50
2023/12/12 00:06:44;;;;;;;3.13;0.80;;;20.00;73.50;;;;;;2088520;28;20029;-50
2023/12/12 00:07:45;;;;;;;1.88;0.80;;;20.00;73.60;;;;;;2087218;28;20151;-51
2023/12/12 00:08:46;;;;;;;1.90;0.70;;;20.00;73.50;;;;;;2087444;28;20028;-51
2023/12/12 00:09:46;;;;;;;2.05;0.90;;;20.10;73.60;;;;;;2087441;28;20442;-51
2023/12/12 00:10:47;;;;;;;2.65;0.90;;;19.90;73.40;;;;;;2087531;28;20134;-50
2023/12/12 00:11:48;;;;;;;1.98;0.95;;;20.00;73.50;;;;;;2087410;28;20434;-51
2023/12/12 00:12:49;;;;;;;4.05;1.25;;;20.10;73.50;;;;;;2087523;28;20032;-52
2023/12/12 00:13:49;;;;;;;1.45;0.98;;;20.10;73.50;;;;;;2086958;28;20032;-50
2023/12/12 00:14:50;;;;;;;1.77;0.90;;;20.00;73.30;;;;;;2088339;28;20484;-51
2023/12/12 00:15:51;;;;;;;1.85;0.85;;;20.00;73.90;;;;;;2087067;28;20033;-51
2023/12/12 00:16:51;;;;;;;1.90;0.80;;;20.10;73.50;;;;;;2087511;28;20307;-50
2023/12/12 00:17:52;;;;;;;2.17;0.90;;;20.10;73.40;;;;;;2087916;28;20055;-50
2023/12/12 00:18:52;;;;;;;2.28;0.82;;;20.00;73.30;;;;;;2087824;28;20025;-50
2023/12/12 00:19:53;;;;;;;1.85;0.80;;;20.00;73.40;;;;;;2087308;28;20036;-50
2023/12/12 00:20:53;;;;;;;2.97;0.80;;;20.00;73.40;;;;;;2088169;28;20017;-50
2023/12/12 00:21:54;;;;;;;1.55;0.80;;;20.00;73.40;;;;;;2087256;28;20047;-51
2023/12/12 00:22:54;;;;;;;1.95;0.88;;;19.90;73.40;;;;;;2087944;28;20360;-50
2023/12/12 00:23:55;;;;;;;1.15;0.70;;;20.00;73.40;;;;;;2087322;28;20025;-51
2023/12/12 00:24:56;;;;;;;2.45;0.88;;;20.00;73.30;;;;;;2087358;28;20526;-51
2023/12/12 00:25:57;;;;;;;1.20;0.63;;;20.00;73.30;;;;;;2088168;28;20021;-50
2023/12/12 00:26:58;;;;;;;1.85;0.88;;;20.00;73.30;;;;;;2087551;28;20021;-50
2023/12/12 00:27:58;;;;;;;3.00;0.60;;;20.00;73.30;;;;;;2087134;28;20105;-52
2023/12/12 00:28:59;;;;;;;1.27;0.75;;;20.00;73.20;;;;;;2088065;28;20029;-50
2023/12/12 00:30:00;;;;;;;1.08;0.80;;;20.00;73.30;;;;;;2087522;28;20175;-51
2023/12/12 00:31:01;;;;;;;3.42;0.93;;;20.00;73.20;;;;;;2087599;28;20116;-50
2023/12/12 00:32:02;;;;;;;1.40;0.80;;;20.00;73.30;;;;;;2087958;28;20174;-50
2023/12/12 00:33:03;;;;;;;3.05;0.82;;;20.00;73.20;;;;;;2086775;28;20025;-52
2023/12/12 00:34:03;;;;;;;3.00;0.80;;;19.90;73.20;;;;;;2088166;28;20032;-52
2023/12/12 00:35:06;;;;;;;1.60;0.80;;;20.00;73.20;;;;;;2087172;28;20037;-51
2023/12/12 00:36:07;;;;;;;2.08;1.42;;;20.00;73.20;;;;;;2087033;28;20024;-50
2023/12/12 00:37:07;;;;;;;1.75;0.70;;;20.00;73.10;;;;;;2087442;28;20496;-52
2023/12/12 00:38:08;;;;;;;1.95;0.80;;;20.00;73.00;;;;;;2087378;28;20081;-50
2023/12/12 00:39:09;;;;;;;6.72;1.00;;;19.90;72.80;;;;;;2087233;28;20021;-52
2023/12/12 00:40:10;;;;;;;3.83;1.08;;;20.00;72.90;;;;;;2087698;28;20017;-51
2023/12/12 00:41:11;;;;;;;2.35;0.60;;;19.90;72.90;;;;;;2087415;28;20036;-50
2023/12/12 00:42:11;;;;;;;1.98;1.05;;;20.00;72.90;;;;;;2087573;28;20021;-50
2023/12/12 00:43:12;;;;;;;2.65;0.82;;;20.00;72.90;;;;;;2087446;28;20047;-51
2023/12/12 00:44:13;;;;;;;3.08;1.02;;;19.90;72.80;;;;;;2087761;28;20036;-51
2023/12/12 00:45:14;;;;;;;1.10;0.70;;;20.00;72.90;;;;;;2086918;28;20409;-52
2023/12/12 00:46:15;;;;;;;1.40;0.80;;;19.90;72.90;;;;;;2087613;28;20024;-50
2023/12/12 00:47:15;;;;;;;2.75;0.80;;;20.00;72.90;;;;;;2087609;28;20053;-51
2023/12/12 00:48:17;;;;;;;1.45;0.68;;;20.00;72.90;;;;;;2087704;28;20309;-50
2023/12/12 00:49:17;;;;;;;2.22;0.93;;;20.00;72.90;;;;;;2085987;28;20398;-50
2023/12/12 00:50:18;;;;;;;1.98;0.70;;;19.90;72.80;;;;;;2085230;28;20443;-52
2023/12/12 00:51:18;;;;;;;3.10;0.70;;;20.00;72.80;;;;;;2083919;28;20039;-51
2023/12/12 00:52:19;;;;;;;2.38;0.93;;;19.90;73.30;;;;;;2087236;28;20024;-50
2023/12/12 00:53:20;;;;;;;1.17;0.80;;;19.90;72.70;;;;;;2084780;28;20527;-50
2023/12/12 00:54:20;;;;;;;2.38;0.75;;;19.80;73.30;;;;;;2086692;28;20086;-50
2023/12/12 00:55:21;;;;;;;1.67;0.77;;;19.90;72.80;;;;;;2085049;28;20025;-50
2023/12/12 00:56:21;;;;;;;1.88;0.90;;;20.00;72.90;;;;;;2087025;28;20032;-51
2023/12/12 00:57:22;;;;;;;4.10;0.93;;;19.90;72.80;;;;;;2086640;28;20021;-50
2023/12/12 00:58:22;;;;;;;2.45;1.02;;;20.00;72.80;;;;;;2085573;28;20017;-50
2023/12/12 00:59:23;;;;;;;1.88;1.00;;;19.90;72.70;;;;;;2085368;28;20033;-50
2023/12/12 01:00:24;;;;;;;2.35;0.80;;;19.90;72.70;;;;;;2083587;28;20110;-51
2023/12/12 01:01:24;;;;;;;3.05;0.90;;;19.90;72.70;;;;;;2087269;28;20023;-50
2023/12/12 01:02:25;;;;;;;2.22;0.63;;;19.90;72.70;;;;;;2086536;28;20017;-51
2023/12/12 01:03:27;;;;;;;3.08;0.93;;;19.90;72.80;;;;;;2087081;28;20025;-50
2023/12/12 01:04:33;;;;;;;1.90;0.75;;;19.80;72.70;;;;;;2082539;28;20447;-52
2023/12/12 01:05:33;;;;;;;1.35;0.60;;;19.90;72.70;;;;;;2082291;28;20029;-51
2023/12/12 01:06:34;;;;;;;4.07;1.08;;;20.00;72.80;;;;;;2086062;28;20527;-50
2023/12/12 01:07:35;;;;;;;2.05;0.77;;;19.90;72.70;;;;;;2085601;28;20600;-50
2023/12/12 01:08:35;;;;;;;2.50;0.70;;;19.90;72.70;;;;;;2085965;28;20035;-50
2023/12/12 01:09:36;;;;;;;1.27;0.70;;;19.90;72.70;;;;;;2087665;28;20219;-50
2023/12/12 01:10:36;;;;;;;1.15;0.60;;;20.00;72.70;;;;;;2085695;28;20025;-50
2023/12/12 01:11:37;;;;;;;2.83;0.85;;;19.90;72.60;;;;;;2086850;28;20040;-51
2023/12/12 01:12:37;;;;;;;3.03;0.90;;;20.00;72.60;;;;;;2085435;28;20059;-50
2023/12/12 01:13:38;;;;;;;1.63;0.65;;;19.90;72.50;;;;;;2085203;28;20100;-50
2023/12/12 01:14:38;;;;;;;1.13;0.80;;;19.90;72.40;;;;;;2086936;28;20033;-50
2023/12/12 01:15:39;;;;;;;2.17;0.90;;;19.90;73.10;;;;;;2085869;28;20032;-51
2023/12/12 01:16:40;;;;;;;1.60;0.75;;;19.90;72.40;;;;;;2085006;28;20387;-51
2023/12/12 01:17:41;;;;;;;1.98;0.90;;;19.90;72.40;;;;;;2087101;28;20035;-55
2023/12/12 01:18:41;;;;;;;2.33;0.68;;;19.90;72.50;;;;;;2085782;28;20032;-50
2023/12/12 01:19:42;;;;;;;2.20;0.80;;;19.90;72.50;;;;;;2087194;28;20024;-51
2023/12/12 01:20:42;;;;;;;3.28;1.17;;;19.80;72.40;;;;;;2086388;28;20399;-50
2023/12/12 01:21:43;;;;;;;2.97;0.77;;;19.80;72.40;;;;;;2087429;28;20039;-50
2023/12/12 01:22:43;;;;;;;1.90;0.85;;;19.90;73.10;;;;;;2086638;28;20075;-50
2023/12/12 01:23:52;;;;;;;1.85;0.70;;;19.90;72.40;;;;;;2087646;28;20505;-52
2023/12/12 01:24:52;;;;;;;1.73;0.80;;;19.90;72.50;;;;;;2083167;28;20021;-51
2023/12/12 01:25:53;;;;;;;2.63;0.80;;;19.90;72.40;;;;;;2086787;28;20021;-52
2023/12/12 01:26:53;;;;;;;1.10;0.65;;;19.90;72.40;;;;;;2084812;28;20029;-52
2023/12/12 01:27:54;;;;;;;1.45;0.65;;;19.80;72.40;;;;;;2086588;28;20033;-50
2023/12/12 01:28:55;;;;;;;2.53;0.90;;;19.80;72.50;;;;;;2084509;28;20423;-50
2023/12/12 01:29:55;;;;;;;2.13;0.77;;;19.80;72.50;;;;;;2084542;28;20029;-50
2023/12/12 01:30:59;;;;;;;1.00;0.63;;;19.80;72.50;;;;;;2082773;28;20097;-51
2023/12/12 01:31:59;;;;;;;2.55;0.75;;;19.90;72.50;;;;;;2084617;28;20021;-50
2023/12/12 01:33:00;;;;;;;1.63;0.70;;;19.90;72.50;;;;;;2087371;28;20527;-50
2023/12/12 01:34:01;;;;;;;1.85;0.70;;;19.80;72.40;;;;;;2085373;28;20444;-50
2023/12/12 01:35:01;;;;;;;3.17;0.90;;;19.80;72.40;;;;;;2087024;28;20028;-53
2023/12/12 01:36:02;;;;;;;2.03;0.80;;;19.80;72.30;;;;;;2087349;28;20024;-51
2023/12/12 01:37:03;;;;;;;1.90;0.90;;;19.80;72.30;;;;;;2083621;28;20120;-52
2023/12/12 01:38:03;;;;;;;1.33;0.73;;;19.70;72.20;;;;;;2086589;28;20067;-50
2023/12/12 01:39:04;;;;;;;1.02;0.60;;;19.80;72.30;;;;;;2086837;28;20029;-51
2023/12/12 01:40:07;;;;;;;3.03;1.05;;;19.70;72.30;;;;;;2086774;28;20017;-53
2023/12/12 01:41:07;;;;;;;1.85;1.02;;;19.80;72.40;;;;;;2087341;28;20032;-51
2023/12/12 01:42:08;;;;;;;1.73;1.00;;;19.80;72.50;;;;;;2087040;28;20096;-51
2023/12/12 01:43:09;;;;;;;1.90;0.90;;;19.80;72.50;;;;;;2086190;28;20033;-50
2023/12/12 01:44:09;;;;;;;1.23;0.90;;;19.80;72.30;;;;;;2087460;28;20025;-50
2023/12/12 01:45:10;;;;;;;0.82;0.70;;;19.70;72.30;;;;;;2086861;28;20436;-50
2023/12/12 01:46:14;;;;;;;1.70;0.90;;;19.80;72.20;;;;;;2087259;28;20029;-50
2023/12/12 01:47:15;;;;;;;2.47;0.70;;;19.80;72.30;;;;;;2081475;28;20373;-52
2023/12/12 01:48:16;;;;;;;2.03;1.00;;;19.80;72.20;;;;;;2086858;28;20727;-50
2023/12/12 01:49:17;;;;;;;2.03;0.75;;;19.80;72.30;;;;;;2087334;28;20027;-50
2023/12/12 01:50:18;;;;;;;1.98;0.95;;;19.80;72.30;;;;;;2084025;28;20029;-50
2023/12/12 01:51:20;;;;;;;1.75;0.80;;;19.70;72.20;;;;;;2087082;28;20021;-51
2023/12/12 01:52:22;;;;;;;2.92;1.20;;;19.70;72.20;;;;;;2086508;28;20021;-53
2023/12/12 01:53:37;;;;;;;1.80;0.80;;;19.80;72.30;;;;;;2086925;28;20019;-53
2023/12/12 01:54:41;;;;;;;2.72;0.88;;;19.80;72.30;;;;;;2085044;28;20021;-51
2023/12/12 01:55:42;;;;;;;2.05;0.88;;;19.90;72.40;;;;;;2086631;28;20124;-50
2023/12/12 01:56:47;;;;;;;2.88;0.95;;;19.80;72.20;;;;;;2085719;28;20043;-50
2023/12/12 01:57:48;;;;;;;1.58;1.00;;;19.80;72.10;;;;;;2085826;28;20078;-53
2023/12/12 01:58:51;;;;;;;2.55;0.93;;;19.90;72.20;;;;;;2087101;28;20021;-50
2023/12/12 01:59:53;;;;;;;3.17;1.00;;;19.80;72.20;;;;;;2087024;28;20025;-50
2023/12/12 02:00:54;;;;;;;1.50;0.95;;;19.80;72.20;;;;;;2086834;28;20505;-50
2023/12/12 02:01:55;;;;;;;1.50;1.00;;;19.80;72.20;;;;;;2086779;28;20029;-52
2023/12/12 02:02:56;;;;;;;1.42;0.82;;;19.80;72.10;;;;;;2083049;28;20101;-50
2023/12/12 02:03:58;;;;;;;1.80;1.00;;;19.70;72.10;;;;;;2086687;28;20025;-50
2023/12/12 02:04:59;;;;;;;1.02;0.68;;;19.70;72.10;;;;;;2083875;28;20060;-53
2023/12/12 02:06:01;;;;;;;1.58;0.90;;;19.70;72.10;;;;;;2086731;28;20047;-50
2023/12/12 02:07:04;;;;;;;1.92;0.93;;;19.80;72.20;;;;;;2086451;28;20074;-51
2023/12/12 02:08:05;;;;;;;1.85;1.23;;;19.70;72.10;;;;;;2086501;28;20021;-50
2023/12/12 02:09:05;;;;;;;3.30;1.00;;;19.80;72.20;;;;;;2085994;28;20083;-52
2023/12/12 02:10:06;;;;;;;1.70;1.15;;;19.70;72.10;;;;;;2086458;28;20029;-51
2023/12/12 02:11:07;;;;;;;1.35;0.90;;;19.70;72.10;;;;;;2086713;28;20209;-50
2023/12/12 02:12:08;;;;;;;3.80;0.90;;;19.60;72.10;;;;;;2084316;28;20025;-50
2023/12/12 02:13:09;;;;;;;2.00;1.02;;;19.70;72.10;;;;;;2084631;28;20039;-50
2023/12/12 02:14:10;;;;;;;1.88;0.95;;;19.80;72.20;;;;;;2084220;28;20025;-51
2023/12/12 02:15:11;;;;;;;2.25;1.13;;;19.70;72.10;;;;;;2086136;28;20706;-51
2023/12/12 02:16:12;;;;;;;2.55;1.20;;;19.70;72.10;;;;;;2086743;28;20117;-51
2023/12/12 02:17:13;;;;;;;2.67;1.05;;;19.70;72.10;;;;;;2082866;28;20013;-51
2023/12/12 02:18:16;;;;;;;4.75;1.10;;;19.70;72.10;;;;;;2086147;28;20032;-51
2023/12/12 02:19:17;;;;;;;1.27;1.00;;;19.70;72.10;;;;;;2081942;28;20021;-50
2023/12/12 02:20:18;;;;;;;2.38;1.00;;;19.80;72.20;;;;;;2087112;28;20045;-50
2023/12/12 02:21:19;;;;;;;1.40;0.90;;;19.70;72.10;;;;;;2087041;28;20021;-53
2023/12/12 02:22:20;;;;;;;3.20;1.48;;;19.60;72.10;;;;;;2087308;28;20021;-50
2023/12/12 02:23:20;;;;;;;2.53;1.13;;;19.80;72.20;;;;;;2086702;28;20480;-51
2023/12/12 02:24:21;;;;;;;1.75;1.17;;;19.80;72.20;;;;;;2087615;28;20432;-51
2023/12/12 02:25:22;;;;;;;3.80;1.45;;;19.80;72.10;;;;;;2086661;28;20049;-50
2023/12/12 02:26:22;;;;;;;1.58;0.82;;;19.70;72.00;;;;;;2085981;28;20163;-53
2023/12/12 02:27:24;;;;;;;2.85;1.75;;;19.60;72.00;;;;;;2085747;28;20108;-49
2023/12/12 02:28:24;;;;;;;3.97;1.15;;;19.70;72.10;;;;;;2083851;28;20206;-50
2023/12/12 02:29:25;;;;;;;1.52;1.05;;;19.70;72.10;;;;;;2085039;28;20467;-50
2023/12/12 02:30:26;;;;;;;3.80;1.00;;;19.70;72.10;;;;;;2086257;28;20020;-51
2023/12/12 02:31:26;;;;;;;1.92;1.10;;;19.70;72.00;;;;;;2085503;28;20096;-50
2023/12/12 02:32:29;;;;;;;2.80;1.10;;;19.70;72.10;;;;;;2086032;28;20454;-50
2023/12/12 02:33:29;;;;;;;3.17;1.23;;;19.70;72.10;;;;;;2087997;28;20387;-50
2023/12/12 02:34:30;;;;;;;2.78;1.05;;;19.60;72.10;;;;;;2088006;28;20036;-50
2023/12/12 02:35:31;;;;;;;2.78;1.23;;;19.60;72.10;;;;;;2089079;28;20100;-50
2023/12/12 02:36:31;;;;;;;2.75;1.30;;;19.60;72.10;;;;;;2086938;28;20312;-50
2023/12/12 02:37:32;;;;;;;2.65;1.20;;;19.70;72.10;;;;;;2087834;28;20522;-50
2023/12/12 02:38:32;;;;;;;2.50;1.10;;;19.70;72.10;;;;;;2086609;28;20029;-52
2023/12/12 02:39:33;;;;;;;1.95;1.08;;;19.70;72.10;;;;;;2087973;28;20112;-51
2023/12/12 02:40:34;;;;;;;2.35;1.05;;;19.70;72.10;;;;;;2088474;28;20029;-50
2023/12/12 02:41:34;;;;;;;2.40;1.10;;;19.70;72.10;;;;;;2087566;28;20032;-51
2023/12/12 02:42:35;;;;;;;1.85;1.20;;;19.60;72.10;;;;;;2086463;28;20029;-50
2023/12/12 02:43:37;;;;;;;1.42;1.08;;;19.60;72.00;;;;;;2085950;28;20096;-53
2023/12/12 02:44:37;;;;;;;1.52;1.20;;;19.60;72.00;;;;;;2088714;28;20021;-50
2023/12/12 02:45:38;;;;;;;1.77;0.95;;;19.60;72.60;;;;;;2088548;28;20480;-50
2023/12/12 02:46:39;;;;;;;2.35;1.27;;;19.60;72.00;;;;;;2086901;28;20029;-50
2023/12/12 02:47:40;;;;;;;2.30;1.23;;;19.70;72.00;;;;;;2083699;28;20045;-53
2023/12/12 02:48:40;;;;;;;2.72;1.10;;;19.60;71.90;;;;;;2083801;28;20356;-50
2023/12/12 02:49:41;;;;;;;1.83;1.20;;;19.60;72.00;;;;;;2087344;28;20408;-51
2023/12/12 02:50:42;;;;;;;2.28;1.70;;;19.70;72.00;;;;;;2088095;28;20032;-51
2023/12/12 02:51:42;;;;;;;2.88;1.15;;;19.60;71.90;;;;;;2088379;28;20031;-52
2023/12/12 02:52:43;;;;;;;2.95;1.15;;;19.50;71.90;;;;;;2088430;28;20100;-51
2023/12/12 02:53:43;;;;;;;1.90;1.20;;;19.60;72.00;;;;;;2088672;28;20060;-50
2023/12/12 02:54:44;;;;;;;4.57;1.13;;;19.70;72.00;;;;;;2088261;28;20029;-50
2023/12/12 02:55:44;;;;;;;3.17;1.10;;;19.60;72.00;;;;;;2088350;28;20039;-53
2023/12/12 02:56:45;;;;;;;3.17;1.10;;;19.60;72.00;;;;;;2088415;28;20048;-51
2023/12/12 02:57:45;;;;;;;2.10;1.10;;;19.60;72.00;;;;;;2088554;28;20028;-51
2023/12/12 02:58:46;;;;;;;4.57;1.35;;;19.50;71.90;;;;;;2087950;28;20052;-52
2023/12/12 02:59:47;;;;;;;2.40;1.17;;;19.60;72.00;;;;;;2088806;28;20029;-51
2023/12/12 03:00:47;;;;;;;3.00;1.25;;;19.60;72.00;;;;;;2085833;28;20373;-51
2023/12/12 03:01:48;;;;;;;2.35;1.10;;;19.60;72.00;;;;;;2087557;28;20029;-51
2023/12/12 03:02:49;;;;;;;2.40;1.00;;;19.60;72.00;;;;;;2087557;28;20023;-50
2023/12/12 03:03:49;;;;;;;3.13;1.60;;;19.60;72.10;;;;;;2087621;28;20021;-50
2023/12/12 03:04:50;;;;;;;3.03;1.17;;;19.60;72.10;;;;;;2087477;28;20032;-50
2023/12/12 03:05:50;;;;;;;2.63;1.38;;;19.60;72.10;;;;;;2086329;28;20033;-50
2023/12/12 03:06:51;;;;;;;2.08;1.33;;;19.60;72.10;;;;;;2088369;28;20145;-51
2023/12/12 03:07:51;;;;;;;2.42;1.30;;;19.60;72.00;;;;;;2085143;28;20116;-51
2023/12/12 03:08:52;;;;;;;1.88;1.20;;;19.60;72.00;;;;;;2085260;28;20597;-51
2023/12/12 03:09:53;;;;;;;1.88;1.02;;;19.60;72.00;;;;;;2083508;28;20088;-52
2023/12/12 03:10:53;;;;;;;2.70;1.30;;;19.60;72.10;;;;;;2087836;28;20021;-50
2023/12/12 03:11:55;;;;;;;2.03;1.30;;;19.50;71.90;;;;;;2086916;28;20040;-50
2023/12/12 03:12:56;;;;;;;1.58;1.15;;;19.60;72.00;;;;;;2086213;28;20237;-51
2023/12/12 03:13:56;;;;;;;1.60;0.90;;;19.60;72.10;;;;;;2084090;28;20078;-50
2023/12/12 03:14:57;;;;;;;2.08;1.00;;;19.60;72.00;;;;;;2088269;28;20025;-50
2023/12/12 03:15:57;;;;;;;3.78;1.30;;;19.60;72.10;;;;;;2088075;28;20021;-50
2023/12/12 03:16:58;;;;;;;2.03;1.23;;;19.70;72.10;;;;;;2087865;28;20043;-50
2023/12/12 03:17:59;;;;;;;1.20;0.95;;;19.60;72.10;;;;;;2088730;28;20531;-51
2023/12/12 03:18:59;;;;;;;1.42;1.10;;;19.60;72.10;;;;;;2087830;28;20025;-51
2023/12/12 03:20:00;;;;;;;2.35;1.38;;;19.60;72.00;;;;;;2088769;28;20419;-50
2023/12/12 03:21:00;;;;;;;2.60;1.50;;;19.60;72.10;;;;;;2087611;28;20174;-50
2023/12/12 03:22:01;;;;;;;2.67;1.40;;;19.50;71.90;;;;;;2086475;28;20025;-52
2023/12/12 03:23:01;;;;;;;2.88;1.23;;;19.60;72.70;;;;;;2087726;28;20031;-50
2023/12/12 03:24:02;;;;;;;2.67;1.05;;;19.60;72.10;;;;;;2086521;28;20040;-50
2023/12/12 03:25:04;;;;;;;1.50;1.00;;;19.60;72.10;;;;;;2087727;28;20021;-51
2023/12/12 03:26:08;;;;;;;3.25;1.17;;;19.60;72.10;;;;;;2087641;28;20021;-50
2023/12/12 03:27:08;;;;;;;1.70;0.90;;;19.50;72.10;;;;;;2087273;28;20013;-51
2023/12/12 03:28:09;;;;;;;2.80;1.17;;;19.60;72.10;;;;;;2086262;28;20032;-51
2023/12/12 03:29:09;;;;;;;2.28;1.05;;;19.50;72.10;;;;;;2087380;28;20548;-50
2023/12/12 03:30:10;;;;;;;2.53;1.40;;;19.60;72.10;;;;;;2087260;28;20071;-52
2023/12/12 03:31:11;;;;;;;2.92;1.27;;;19.50;72.10;;;;;;2086485;28;20033;-51
2023/12/12 03:32:11;;;;;;;2.20;1.30;;;19.60;72.10;;;;;;2087653;28;20408;-51
2023/12/12 03:33:12;;;;;;;1.77;1.10;;;19.50;72.00;;;;;;2085437;28;20408;-52
2023/12/12 03:34:12;;;;;;;2.08;1.00;;;19.60;72.10;;;;;;2088248;28;20487;-51
2023/12/12 03:35:13;;;;;;;2.28;1.30;;;19.50;72.10;;;;;;2086040;28;20418;-50
2023/12/12 03:36:14;;;;;;;1.95;1.00;;;19.50;72.10;;;;;;2087959;28;20116;-54
2023/12/12 03:37:16;;;;;;;3.28;1.20;;;19.60;72.10;;;;;;2088614;28;20024;-50
2023/12/12 03:38:16;;;;;;;2.05;1.25;;;19.50;72.00;;;;;;2088025;28;20025;-51
2023/12/12 03:39:17;;;;;;;3.55;1.25;;;19.50;72.10;;;;;;2088770;28;20075;-50
2023/12/12 03:40:17;;;;;;;1.90;1.05;;;19.60;72.10;;;;;;2087851;28;20017;-51
2023/12/12 03:41:18;;;;;;;2.55;1.20;;;19.40;72.00;;;;;;2088200;28;20505;-50
2023/12/12 03:42:18;;;;;;;2.88;1.13;;;19.50;72.10;;;;;;2088209;28;20380;-51
2023/12/12 03:43:19;;;;;;;4.70;1.30;;;19.50;72.00;;;;;;2085007;28;20392;-50
2023/12/12 03:44:19;;;;;;;2.67;1.30;;;19.50;72.00;;;;;;2088197;28;20392;-50
2023/12/12 03:45:20;;;;;;;2.28;1.27;;;19.50;72.10;;;;;;2088479;28;20057;-51
2023/12/12 03:46:21;;;;;;;3.10;1.20;;;19.50;72.10;;;;;;2086489;28;20021;-52
2023/12/12 03:47:22;;;;;;;2.15;1.30;;;19.60;72.20;;;;;;2086398;28;20028;-52
2023/12/12 03:48:22;;;;;;;2.42;1.10;;;19.50;72.10;;;;;;2087047;28;20025;-50
2023/12/12 03:49:23;;;;;;;4.47;1.33;;;19.60;72.10;;;;;;2086451;28;20029;-50
2023/12/12 03:50:23;;;;;;;2.10;1.13;;;19.50;72.00;;;;;;2087986;28;20535;-52
2023/12/12 03:51:24;;;;;;;3.28;1.45;;;19.50;72.00;;;;;;2087694;28;20096;-50
2023/12/12 03:52:24;;;;;;;2.25;1.30;;;19.50;72.00;;;;;;2087695;28;20028;-50
2023/12/12 03:53:25;;;;;;;2.03;1.27;;;19.50;72.10;;;;;;2088401;28;20040;-54
2023/12/12 03:54:25;;;;;;;1.58;1.00;;;19.60;72.10;;;;;;2087532;28;20027;-51
2023/12/12 03:55:26;;;;;;;3.33;1.42;;;19.50;72.00;;;;;;2088167;28;20016;-51
2023/12/12 03:56:27;;;;;;;3.55;1.40;;;19.50;72.00;;;;;;2087798;28;20051;-50
2023/12/12 03:57:27;;;;;;;2.97;1.40;;;19.50;72.60;;;;;;2088107;28;20074;-50
2023/12/12 03:58:28;;;;;;;1.92;1.00;;;19.40;72.00;;;;;;2087906;28;20017;-51
2023/12/12 03:59:28;;;;;;;2.40;1.20;;;19.50;72.10;;;;;;2087911;28;20151;-51
2023/12/12 04:00:29;;;;;;;2.65;1.40;;;19.50;72.10;;;;;;2085484;28;20028;-50
2023/12/12 04:01:31;;;;;;;4.47;1.23;;;19.50;72.10;;;;;;2086139;28;20025;-49
2023/12/12 04:02:32;;;;;;;1.67;1.10;;;19.50;72.10;;;;;;2087076;28;20016;-50
2023/12/12 04:03:32;;;;;;;2.85;1.40;;;19.40;72.10;;;;;;2088205;28;20021;-50
2023/12/12 04:04:33;;;;;;;3.60;1.40;;;19.50;72.10;;;;;;2086106;28;20021;-52
2023/12/12 04:05:33;;;;;;;1.95;1.27;;;19.50;72.10;;;;;;2087594;28;20036;-51
2023/12/12 04:06:34;;;;;;;2.40;1.60;;;19.40;72.00;;;;;;2088504;28;20109;-50
2023/12/12 04:07:34;;;;;;;2.72;1.20;;;19.50;72.10;;;;;;2085346;28;20029;-51
2023/12/12 04:08:35;;;;;;;2.60;1.00;;;19.30;72.00;;;;;;2085813;28;20021;-50
2023/12/12 04:09:36;;;;;;;3.85;1.30;;;19.50;72.10;;;;;;2087883;28;20029;-50
2023/12/12 04:10:36;;;;;;;2.55;1.20;;;19.50;72.10;;;;;;2087355;28;20492;-50
2023/12/12 04:11:37;;;;;;;3.58;1.88;;;19.40;72.00;;;;;;2087843;28;20400;-50
2023/12/12 04:12:38;;;;;;;1.67;0.98;;;19.50;72.00;;;;;;2086172;28;20237;-50
2023/12/12 04:13:39;;;;;;;2.97;1.30;;;19.30;72.00;;;;;;2087653;28;20491;-50
2023/12/12 04:14:39;;;;;;;1.30;0.95;;;19.40;72.00;;;;;;2088201;28;20059;-51
2023/12/12 04:15:40;;;;;;;3.22;1.30;;;19.40;72.00;;;;;;2087407;28;20107;-51
2023/12/12 04:16:41;;;;;;;3.42;1.50;;;19.40;72.00;;;;;;2088072;28;20025;-50
2023/12/12 04:17:42;;;;;;;2.55;1.40;;;19.40;72.00;;;;;;2087596;28;20025;-51
2023/12/12 04:18:43;;;;;;;3.72;1.42;;;19.40;72.00;;;;;;2085739;28;20017;-52
2023/12/12 04:19:43;;;;;;;2.35;1.25;;;19.50;72.00;;;;;;2087283;28;20029;-49
2023/12/12 04:20:44;;;;;;;2.55;1.27;;;19.40;71.90;;;;;;2086357;28;20039;-52
2023/12/12 04:21:44;;;;;;;2.47;1.15;;;19.50;72.00;;;;;;2086145;28;20021;-51
2023/12/12 04:22:45;;;;;;;3.17;1.10;;;19.50;72.00;;;;;;2087522;28;20476;-50
2023/12/12 04:23:46;;;;;;;2.88;1.33;;;19.40;72.00;;;;;;2085404;28;20389;-50
2023/12/12 04:24:46;;;;;;;3.10;1.33;;;19.40;71.90;;;;;;2088128;28;20029;-52
2023/12/12 04:25:47;;;;;;;2.53;1.40;;;19.40;71.90;;;;;;2086766;28;20024;-50
2023/12/12 04:26:47;;;;;;;2.22;1.25;;;19.40;71.90;;;;;;2085599;28;20480;-50
2023/12/12 04:27:48;;;;;;;2.15;1.55;;;19.50;72.00;;;;;;2086521;28;20743;-51
2023/12/12 04:28:48;;;;;;;1.85;1.20;;;19.40;71.90;;;;;;2087895;28;20103;-51
2023/12/12 04:29:49;;;;;;;1.75;1.27;;;19.30;71.90;;;;;;2087159;28;20043;-52
2023/12/12 04:30:49;;;;;;;4.25;1.33;;;19.50;72.00;;;;;;2088356;28;20392;-50
2023/12/12 04:31:50;;;;;;;3.05;1.40;;;19.40;71.90;;;;;;2084638;28;20450;-51
2023/12/12 04:32:50;;;;;;;2.85;1.25;;;19.40;72.00;;;;;;2087258;28;20663;-50
2023/12/12 04:33:51;;;;;;;3.08;1.35;;;19.50;72.10;;;;;;2087083;28;20056;-50
2023/12/12 04:34:52;;;;;;;3.13;1.25;;;19.40;72.00;;;;;;2085230;28;20049;-51
2023/12/12 04:35:52;;;;;;;2.58;1.45;;;19.40;72.00;;;;;;2086052;28;20103;-53
2023/12/12 04:36:53;;;;;;;3.15;1.33;;;19.40;72.00;;;;;;2086373;28;20125;-50
2023/12/12 04:37:53;;;;;;;1.63;1.02;;;19.40;72.00;;;;;;2087092;28;20383;-49
2023/12/12 04:38:54;;;;;;;3.45;1.33;;;19.30;72.00;;;;;;2087781;28;20435;-50
2023/12/12 04:39:55;;;;;;;2.53;1.20;;;19.40;71.90;;;;;;2087609;28;20013;-50
2023/12/12 04:40:55;;;;;;;3.03;1.10;;;19.40;72.00;;;;;;2087506;28;20017;-50
2023/12/12 04:41:56;;;;;;;1.83;1.30;;;19.40;72.10;;;;;;2087291;28;20056;-50
2023/12/12 04:42:56;;;;;;;1.65;1.10;;;19.30;72.00;;;;;;2084549;28;20075;-53
2023/12/12 04:43:57;;;;;;;1.80;1.20;;;19.40;72.00;;;;;;2088017;28;20024;-50
2023/12/12 04:44:57;;;;;;;2.17;1.38;;;19.30;72.00;;;;;;2087306;28;20099;-51
2023/12/12 04:45:58;;;;;;;2.63;1.23;;;19.40;72.00;;;;;;2087572;28;20025;-51
2023/12/12 04:46:59;;;;;;;2.03;1.40;;;19.40;72.00;;;;;;2087628;28;20048;-50
2023/12/12 04:47:59;;;;;;;2.03;1.13;;;19.40;72.00;;;;;;2087835;28;20028;-51
2023/12/12 04:49:00;;;;;;;2.60;1.40;;;19.50;72.10;;;;;;2087619;28;20028;-52
2023/12/12 04:50:00;;;;;;;2.65;1.20;;;19.40;72.00;;;;;;2087700;28;20436;-52
2023/12/12 04:51:02;;;;;;;3.13;1.30;;;19.40;71.90;;;;;;2087025;28;20025;-52
2023/12/12 04:52:04;;;;;;;2.80;1.50;;;19.40;72.00;;;;;;2087833;28;20602;-50
2023/12/12 04:53:04;;;;;;;1.92;1.50;;;19.40;72.00;;;;;;2087507;28;20021;-51
2023/12/12 04:54:05;;;;;;;2.20;1.27;;;19.40;72.00;;;;;;2087236;28;20053;-50
2023/12/12 04:55:06;;;;;;;1.60;1.17;;;19.40;72.00;;;;;;2084777;28;20535;-51
2023/12/12 04:56:07;;;;;;;3.55;1.67;;;19.40;72.00;;;;;;2087618;28;20442;-51
2023/12/12 04:57:08;;;;;;;3.30;1.15;;;19.40;72.20;;;;;;2084717;28;20036;-50
2023/12/12 04:58:08;;;;;;;2.95;1.58;;;19.40;72.10;;;;;;2088140;28;20036;-50
2023/12/12 04:59:09;;;;;;;3.28;1.25;;;19.40;72.10;;;;;;2086864;28;20368;-50
2023/12/12 05:00:13;;;;;;;2.13;1.17;;;19.40;72.00;;;;;;2087867;28;20549;-54
2023/12/12 05:01:18;;;;;;;2.70;1.35;;;19.40;72.00;;;;;;2087494;28;20107;-50
2023/12/12 05:02:19;;;;;;;2.78;1.35;;;19.30;72.00;;;;;;2087373;28;20033;-50
2023/12/12 05:03:20;;;;;;;1.67;1.20;;;19.40;72.00;;;;;;2087493;28;20127;-51
2023/12/12 05:04:20;;;;;;;3.05;1.58;;;19.30;72.00;;;;;;2087619;28;20114;-50
2023/12/12 05:05:21;;;;;;;1.67;1.35;;;19.40;72.00;;;;;;2087118;28;20104;-53
2023/12/12 05:06:22;;;;;;;4.40;1.80;;;19.30;72.00;;;;;;2086605;28;20259;-50
2023/12/12 05:07:22;;;;;;;2.72;1.50;;;19.40;72.00;;;;;;2084527;28;20025;-51
2023/12/12 05:08:23;;;;;;;1.50;1.08;;;19.30;72.00;;;;;;2086550;28;20063;-50
2023/12/12 05:09:23;;;;;;;3.78;1.55;;;19.30;72.00;;;;;;2085199;28;20392;-51
2023/12/12 05:10:24;;;;;;;1.60;1.38;;;19.40;72.00;;;;;;2087411;28;20498;-51
2023/12/12 05:11:24;;;;;;;2.40;1.48;;;19.30;72.00;;;;;;2087300;28;20426;-50
2023/12/12 05:12:25;;;;;;;3.05;1.50;;;19.20;72.00;;;;;;2086286;28;20499;-51
2023/12/12 05:13:26;;;;;;;3.72;1.50;;;19.40;72.10;;;;;;2085651;28;20530;-53
2023/12/12 05:14:26;;;;;;;2.55;1.42;;;19.40;72.10;;;;;;2087171;28;20109;-50
2023/12/12 05:15:28;;;;;;;1.60;1.27;;;19.30;72.00;;;;;;2087343;28;20058;-51
2023/12/12 05:16:28;;;;;;;2.50;1.58;;;19.20;71.90;;;;;;2087513;28;20104;-51
2023/12/12 05:17:29;;;;;;;2.22;1.45;;;19.30;72.00;;;;;;2086168;28;20020;-51